Time;durP1;ratioP1;P1;durP2;ratioP2;P2;SDS_P1;SDS_P2;PMS_P1;PMS_P2;Temp;Humidity;BMP_temperature;BMP_pressure;BME280_temperature;BME280_humidity;BME280_pressure;Samples;Min_cycle;Max_cycle;Signal;HPM_P1;HPM_P2
2022/02/25 00:01:48;;;;;;;;;1.25;1.00;;;;;6.69;57.72;102067.31;5109172;27;45475;-80
2022/02/25 00:04:13;;;;;;;;;1.75;0.25;;;;;6.68;57.57;102063.00;5110334;27;45464;-77
2022/02/25 00:06:39;;;;;;;;;0.75;0.00;;;;;6.65;57.97;102063.94;5111613;27;45487;-79
2022/02/25 00:09:05;;;;;;;;;1.00;1.00;;;;;6.63;57.47;102065.69;5106787;27;46027;-78
2022/02/25 00:11:31;;;;;;;;;4.00;0.00;;;;;6.61;57.79;102067.50;5109189;27;45305;-77
2022/02/25 00:13:57;;;;;;;;;3.00;0.00;;;;;6.59;57.87;102071.03;5109883;27;45484;-77
2022/02/25 00:16:23;;;;;;;;;2.00;0.00;;;;;6.59;58.43;102076.28;5109382;27;45382;-68
2022/02/25 00:18:48;;;;;;;;;1.75;0.00;;;;;6.60;57.86;102083.25;5106339;27;45432;-73
2022/02/25 00:21:14;;;;;;;;;0.00;0.00;;;;;6.60;59.01;102088.47;5108163;27;45375;-71
2022/02/25 00:23:39;;;;;;;;;1.00;1.00;;;;;6.59;58.69;102084.13;5108839;27;45428;-68
2022/02/25 00:26:05;;;;;;;;;0.00;0.00;;;;;6.57;58.80;102086.78;5100510;27;46440;-78
2022/02/25 00:28:30;;;;;;;;;0.25;0.25;;;;;6.55;58.72;102091.19;5104303;27;45474;-79
2022/02/25 00:30:56;;;;;;;;;2.50;1.00;;;;;6.54;58.64;102091.22;5111076;27;45472;-79
2022/02/25 00:33:22;;;;;;;;;10.50;1.00;;;;;6.52;59.25;102095.63;5108667;27;45376;-76
2022/02/25 00:35:49;;;;;;;;;1.00;0.00;;;;;6.47;58.86;102098.31;5100936;27;45458;-78
2022/02/25 00:38:16;;;;;;;;;2.75;1.00;;;;;6.47;59.14;102100.94;5105291;27;46240;-81
2022/02/25 00:40:41;;;;;;;;;2.00;0.75;;;;;6.44;59.15;102107.13;5117832;27;45325;-68
2022/02/25 00:43:07;;;;;;;;;2.00;1.00;;;;;6.46;59.53;102116.69;5113072;27;45367;-74
2022/02/25 00:45:33;;;;;;;;;1.75;0.00;;;;;6.43;58.69;102112.38;5110531;27;45312;-67
2022/02/25 00:47:59;;;;;;;;;3.00;1.00;;;;;6.43;58.60;102115.00;5109914;27;45354;-72
2022/02/25 00:50:25;;;;;;;;;0.00;0.00;;;;;6.42;58.95;102118.53;5112011;27;45386;-76
2022/02/25 00:52:51;;;;;;;;;1.00;0.00;;;;;6.41;59.64;102117.66;5106982;27;45524;-71
2022/02/25 00:55:16;;;;;;;;;1.00;1.00;;;;;6.42;59.37;102123.75;5104039;27;45467;-71
2022/02/25 00:57:49;;;;;;;;;1.00;0.00;;;;;6.40;59.86;102122.94;5108794;27;46065;-71
2022/02/25 01:00:17;;;;;;;;;3.50;0.00;;;;;6.38;59.30;102124.69;5107798;27;45865;-71
2022/02/25 01:02:44;;;;;;;;;3.25;0.50;;;;;6.37;58.99;102117.75;5107674;27;45455;-72
2022/02/25 01:05:09;;;;;;;;;0.75;0.00;;;;;6.36;59.77;102121.25;5106463;27;45620;-71
2022/02/25 01:07:38;;;;;;;;;2.00;0.75;;;;;6.35;59.07;102122.16;5112740;27;45501;-71
2022/02/25 01:10:07;;;;;;;;;1.50;0.00;;;;;6.34;59.10;102117.81;5087210;27;45431;-71
2022/02/25 01:12:34;;;;;;;;;2.50;1.00;;;;;6.33;60.04;102134.41;5083134;28;45450;-71
2022/02/25 01:15:00;;;;;;;;;8.00;1.25;;;;;6.29;59.91;102130.97;5082870;27;45434;-72
2022/02/25 01:17:29;;;;;;;;;3.50;1.00;;;;;6.28;60.21;102137.09;5082435;27;45411;-71
2022/02/25 01:19:56;;;;;;;;;5.00;2.00;;;;;6.24;59.91;102140.69;5096125;27;45444;-71
2022/02/25 01:22:22;;;;;;;;;2.00;0.50;;;;;6.24;60.55;102150.25;5094123;27;45556;-71
2022/02/25 01:24:47;;;;;;;;;0.00;0.00;;;;;6.23;60.36;102156.38;5093530;27;45377;-71
2022/02/25 01:27:13;;;;;;;;;2.00;1.00;;;;;6.21;59.57;102143.34;5085168;27;45545;-71
2022/02/25 01:29:38;;;;;;;;;1.00;1.00;;;;;6.21;59.77;102148.56;5084995;27;45426;-71
2022/02/25 01:32:04;;;;;;;;;2.75;0.50;;;;;6.20;60.46;102148.59;5088934;27;45461;-71
2022/02/25 01:34:29;;;;;;;;;5.25;1.25;;;;;6.20;59.80;102148.59;5087140;27;45469;-71
2022/02/25 01:36:55;;;;;;;;;0.25;0.00;;;;;6.18;59.67;102147.78;5081938;27;45387;-71
2022/02/25 01:39:20;;;;;;;;;2.25;1.00;;;;;6.16;60.24;102155.63;5086802;27;45421;-71
2022/02/25 01:41:46;;;;;;;;;1.00;0.50;;;;;6.16;60.40;102153.00;5095779;27;45421;-71
2022/02/25 01:44:17;;;;;;;;;2.25;0.00;;;;;6.15;59.83;102152.16;5096241;27;45346;-71
2022/02/25 01:46:55;;;;;;;;;2.25;1.00;;;;;6.14;60.07;102150.44;5081634;27;46032;-71
2022/02/25 01:49:21;;;;;;;;;0.00;0.00;;;;;6.15;60.30;102156.53;5092708;27;45405;-71
2022/02/25 01:51:51;;;;;;;;;2.50;1.00;;;;;6.13;60.03;102150.47;5081252;27;45375;-71
2022/02/25 01:54:17;;;;;;;;;5.00;0.00;;;;;6.11;60.80;102154.88;5091385;27;45428;-71
2022/02/25 01:56:43;;;;;;;;;6.00;1.00;;;;;6.08;60.41;102149.66;5102409;27;46142;-71
2022/02/25 01:59:10;;;;;;;;;4.75;0.25;;;;;6.07;60.18;102146.19;5102623;27;45426;-71
2022/02/25 02:01:37;;;;;;;;;9.25;1.00;;;;;6.07;60.83;102153.19;5102559;27;45442;-71
2022/02/25 02:04:03;;;;;;;;;2.00;0.25;;;;;6.05;60.61;102147.97;5102905;27;45356;-71
2022/02/25 02:06:29;;;;;;;;;1.00;0.00;;;;;6.03;60.78;102149.78;5102219;27;45459;-71
2022/02/25 02:08:55;;;;;;;;;1.50;0.75;;;;;6.04;60.10;102150.63;5102298;27;45370;-72
2022/02/25 02:11:36;;;;;;;;;1.00;1.00;;;;;6.03;60.44;102154.16;5101990;27;45581;-72
2022/02/25 02:14:04;;;;;;;;;2.00;1.00;;;;;6.04;61.54;102150.63;5102595;27;45427;-71
2022/02/25 02:16:29;;;;;;;;;0.75;0.50;;;;;6.01;60.44;102148.94;5102022;27;45296;-71
2022/02/25 02:18:56;;;;;;;;;3.25;0.00;;;;;6.00;60.73;102147.19;5101600;27;45355;-71
2022/02/25 02:21:27;;;;;;;;;1.25;1.00;;;;;5.98;61.02;102148.13;5100403;27;45506;-72
2022/02/25 02:23:58;;;;;;;;;4.00;1.00;;;;;5.96;60.39;102140.31;5100775;27;45366;-71
2022/02/25 02:26:24;;;;;;;;;1.25;0.25;;;;;5.96;61.06;102140.31;5101669;27;45281;-70
2022/02/25 02:28:50;;;;;;;;;2.25;0.00;;;;;5.92;60.94;102146.47;5102323;27;45685;-71
2022/02/25 02:31:16;;;;;;;;;3.75;0.00;;;;;5.93;61.00;102155.19;5102108;27;45664;-71
2022/02/25 02:33:42;;;;;;;;;3.00;0.00;;;;;5.89;60.42;102147.34;5102090;27;45719;-71
2022/02/25 02:36:09;;;;;;;;;1.25;1.00;;;;;5.87;60.20;102143.06;5063544;28;45545;-71
2022/02/25 02:38:35;;;;;;;;;1.50;0.50;;;;;5.87;60.94;102149.16;5081193;28;45308;-71
2022/02/25 02:41:01;;;;;;;;;0.50;0.50;;;;;5.86;60.72;102157.03;5100280;27;45490;-71
2022/02/25 02:43:26;;;;;;;;;1.00;1.00;;;;;5.84;60.46;102149.19;5091659;27;45429;-71
2022/02/25 02:45:53;;;;;;;;;2.50;0.75;;;;;5.83;61.00;102152.69;5080714;27;45477;-70
2022/02/25 02:48:18;;;;;;;;;2.75;0.00;;;;;5.81;61.50;102146.63;5072908;27;45758;-70
2022/02/25 02:50:44;;;;;;;;;5.75;0.00;;;;;5.78;61.88;102148.44;5084797;27;45412;-71
2022/02/25 02:53:09;;;;;;;;;1.75;0.00;;;;;5.76;61.04;102134.50;5081338;28;45477;-71
2022/02/25 02:55:35;;;;;;;;;2.00;0.50;;;;;5.78;61.27;102140.59;5080800;27;45355;-71
2022/02/25 02:58:01;;;;;;;;;1.25;0.75;;;;;5.74;61.76;102141.53;5080713;28;45446;-71
2022/02/25 03:00:27;;;;;;;;;1.50;1.00;;;;;5.74;61.97;102136.28;5081049;28;45371;-72
2022/02/25 03:02:52;;;;;;;;;3.00;0.00;;;;;5.78;61.73;102143.22;5080825;28;45690;-71
2022/02/25 03:05:18;;;;;;;;;0.75;0.75;;;;;5.78;61.24;102144.06;5080561;28;46244;-71
2022/02/25 03:07:46;;;;;;;;;2.50;1.00;;;;;5.79;61.60;102148.41;5080957;27;45571;-71
2022/02/25 03:10:12;;;;;;;;;1.50;0.00;;;;;5.78;61.71;102146.69;5080794;27;45416;-71
2022/02/25 03:12:40;;;;;;;;;0.00;0.00;;;;;5.80;61.61;102141.44;5080675;28;45351;-71
2022/02/25 03:15:06;;;;;;;;;0.00;0.00;;;;;5.78;61.26;102149.31;5080408;28;45452;-71
2022/02/25 03:17:32;;;;;;;;;2.75;0.00;;;;;5.77;61.93;102151.94;5080606;28;45372;-71
2022/02/25 03:19:58;;;;;;;;;1.00;0.00;;;;;5.76;61.98;102150.19;5080728;28;45343;-71
2022/02/25 03:22:25;;;;;;;;;1.50;0.00;;;;;5.75;62.66;102153.72;5080868;28;45362;-71
2022/02/25 03:24:54;;;;;;;;;2.50;1.25;;;;;5.74;62.48;102158.06;5061893;27;45550;-71
2022/02/25 03:27:21;;;;;;;;;3.00;0.00;;;;;5.73;62.02;102152.88;5080603;28;45390;-71
2022/02/25 03:29:46;;;;;;;;;1.75;0.00;;;;;5.73;62.83;102150.25;5078973;27;45618;-70
2022/02/25 03:32:12;;;;;;;;;1.00;0.00;;;;;5.71;62.93;102152.03;5090420;27;45375;-71
2022/02/25 03:34:38;;;;;;;;;4.50;0.00;;;;;5.72;62.14;102151.16;5089701;27;45361;-71
2022/02/25 03:37:04;;;;;;;;;2.00;1.00;;;;;5.71;62.21;102155.53;5080287;28;45406;-71
2022/02/25 03:39:30;;;;;;;;;2.00;0.00;;;;;5.72;62.98;102159.00;5083046;27;45621;-71
2022/02/25 03:41:56;;;;;;;;;1.50;0.00;;;;;5.71;63.23;102162.50;5095479;27;45402;-71
2022/02/25 03:44:22;;;;;;;;;1.75;0.00;;;;;5.72;62.44;102152.00;5083085;27;46233;-71
2022/02/25 03:46:48;;;;;;;;;0.75;0.00;;;;;5.74;62.80;102165.06;5080038;28;45433;-71
2022/02/25 03:49:14;;;;;;;;;3.25;1.00;;;;;5.71;62.61;102172.97;5059975;28;45425;-71
2022/02/25 03:51:40;;;;;;;;;2.50;0.00;;;;;5.72;63.49;102169.44;5060187;28;45492;-70
2022/02/25 03:54:05;;;;;;;;;2.00;0.00;;;;;5.69;62.35;102173.00;5059879;28;45386;-71
2022/02/25 03:56:31;;;;;;;;;1.25;0.00;;;;;5.68;62.84;102173.00;5060144;28;45345;-71
2022/02/25 03:58:56;;;;;;;;;5.00;1.00;;;;;5.67;62.60;102168.66;5060296;28;45157;-71
2022/02/25 04:01:23;;;;;;;;;5.25;1.00;;;;;5.65;62.48;102179.13;5060004;28;45397;-71
2022/02/25 04:03:49;;;;;;;;;1.50;0.00;;;;;5.64;62.76;102181.78;5059344;28;45449;-71
2022/02/25 04:06:15;;;;;;;;;1.75;1.00;;;;;5.59;63.17;102179.22;5059816;28;45372;-70
2022/02/25 04:08:41;;;;;;;;;1.00;0.00;;;;;5.60;62.93;102179.19;5060392;28;45790;-71
2022/02/25 04:11:06;;;;;;;;;1.50;0.00;;;;;5.62;62.83;102184.44;5060225;28;45538;-71
2022/02/25 04:13:32;;;;;;;;;1.25;0.00;;;;;5.60;63.64;102194.88;5060581;28;45358;-71
2022/02/25 04:15:57;;;;;;;;;0.75;0.00;;;;;5.60;63.12;102183.56;5063114;28;45408;-71
2022/02/25 04:18:23;;;;;;;;;1.25;0.75;;;;;5.62;63.54;102197.50;5062943;28;45567;-71
2022/02/25 04:20:48;;;;;;;;;0.00;0.00;;;;;5.62;62.60;102184.44;5063465;28;45691;-71
2022/02/25 04:23:14;;;;;;;;;0.00;0.00;;;;;5.64;62.96;102197.47;5063163;28;45398;-70
2022/02/25 04:25:39;;;;;;;;;1.00;0.00;;;;;5.63;63.24;102194.00;5062846;28;45479;-70
2022/02/25 04:28:05;;;;;;;;;1.50;0.00;;;;;5.62;63.34;102200.13;5063197;28;45401;-71
2022/02/25 04:30:32;;;;;;;;;4.00;0.25;;;;;5.62;63.70;102205.34;5063233;28;45566;-71
2022/02/25 04:32:58;;;;;;;;;0.25;0.00;;;;;5.64;63.16;102205.31;5062544;28;46044;-71
2022/02/25 04:35:24;;;;;;;;;5.00;0.75;;;;;5.63;63.35;102200.97;5070884;28;45587;-71
2022/02/25 04:37:49;;;;;;;;;1.00;0.00;;;;;5.60;63.07;102200.09;5062956;28;45382;-70
2022/02/25 04:40:15;;;;;;;;;0.00;0.00;;;;;5.63;62.88;102208.81;5064968;28;45372;-70
2022/02/25 04:42:40;;;;;;;;;0.25;0.25;;;;;5.63;62.87;102214.91;5079307;27;45426;-70
2022/02/25 04:45:07;;;;;;;;;1.75;0.50;;;;;5.63;63.96;102222.75;5062967;28;45416;-70
2022/02/25 04:47:32;;;;;;;;;6.00;0.00;;;;;5.64;64.26;102227.09;5068814;27;45315;-70
2022/02/25 04:49:58;;;;;;;;;1.75;1.00;;;;;5.63;63.57;102217.53;5083004;27;45580;-70
2022/02/25 04:52:24;;;;;;;;;0.00;0.00;;;;;5.64;63.71;102221.00;5083119;27;46216;-71
2022/02/25 04:54:49;;;;;;;;;0.00;0.00;;;;;5.65;64.13;102210.50;5082912;28;45395;-71
2022/02/25 04:57:15;;;;;;;;;5.00;1.00;;;;;5.66;63.52;102216.59;5082892;27;45395;-71
2022/02/25 04:59:41;;;;;;;;;1.25;0.75;;;;;5.64;63.62;102221.84;5083111;28;45569;-70
2022/02/25 05:02:06;;;;;;;;;3.50;0.25;;;;;5.64;64.43;102219.25;5082749;27;45535;-71
2022/02/25 05:04:32;;;;;;;;;0.50;0.00;;;;;5.63;63.88;102224.50;5082978;27;45301;-70
2022/02/25 05:06:57;;;;;;;;;2.00;0.00;;;;;5.62;64.39;102228.88;5082441;28;45429;-70
2022/02/25 05:09:23;;;;;;;;;2.00;0.00;;;;;5.63;64.04;102235.81;5083000;28;45162;-71
2022/02/25 05:11:49;;;;;;;;;2.00;0.00;;;;;5.62;64.27;102228.88;5082671;28;45607;-71
2022/02/25 05:22:26;;;;;;;;;2.00;0.50;;;;;5.58;64.73;102248.06;5082274;28;45821;-71
2022/02/25 05:24:52;;;;;;;;;0.50;0.00;;;;;5.59;64.00;102253.28;5081176;28;45323;-69
2022/02/25 05:27:17;;;;;;;;;5.00;0.00;;;;;5.58;64.14;102248.94;5082015;27;45750;-71
2022/02/25 05:29:43;;;;;;;;;1.00;0.00;;;;;5.58;64.87;102256.78;5082224;27;45616;-71
2022/02/25 05:32:08;;;;;;;;;0.25;0.00;;;;;5.58;64.74;102256.78;5082034;28;45308;-71
2022/02/25 05:34:34;;;;;;;;;0.00;0.00;;;;;5.60;64.45;102261.97;5091321;27;45216;-72
2022/02/25 05:37:00;;;;;;;;;1.25;0.00;;;;;5.60;65.14;102260.22;5082338;28;45454;-71
2022/02/25 05:39:26;;;;;;;;;0.50;0.50;;;;;5.60;64.59;102254.13;5084539;27;45491;-71
2022/02/25 05:41:51;;;;;;;;;4.25;0.00;;;;;5.59;65.30;102260.25;5095532;27;46085;-71
2022/02/25 05:44:17;;;;;;;;;2.75;1.00;;;;;5.59;64.38;102266.34;5084779;27;45480;-71
2022/02/25 05:46:42;;;;;;;;;1.75;1.00;;;;;5.59;64.49;102268.97;5082220;28;45417;-71
2022/02/25 05:49:08;;;;;;;;;2.00;1.00;;;;;5.60;64.83;102267.22;5081847;27;45425;-70
2022/02/25 05:51:33;;;;;;;;;1.25;0.00;;;;;5.62;65.17;102281.16;5081982;27;45376;-70
2022/02/25 05:53:59;;;;;;;;;0.00;0.00;;;;;5.62;65.03;102268.06;5081567;28;45404;-70
2022/02/25 05:56:26;;;;;;;;;3.00;0.50;;;;;5.63;64.63;102280.25;5082276;27;45304;-70
2022/02/25 05:58:52;;;;;;;;;4.00;0.25;;;;;5.62;64.75;102278.53;5081928;28;45632;-71
2022/02/25 06:01:18;;;;;;;;;0.00;0.00;;;;;5.62;64.77;102283.75;5081661;27;45365;-71
2022/02/25 06:03:44;;;;;;;;;5.00;0.00;;;;;5.61;65.26;102276.81;5081900;27;45340;-70
2022/02/25 06:06:09;;;;;;;;;3.50;0.00;;;;;5.63;64.89;102293.31;5081889;27;45489;-71
2022/02/25 06:08:35;;;;;;;;;6.50;1.00;;;;;5.63;64.82;102295.09;5081358;28;45334;-71
2022/02/25 06:11:01;;;;;;;;;1.00;0.00;;;;;5.64;65.37;102291.56;5081569;28;45526;-71
2022/02/25 06:13:26;;;;;;;;;0.25;0.00;;;;;5.63;65.28;102285.50;5081825;28;45398;-71
2022/02/25 06:15:52;;;;;;;;;1.00;0.00;;;;;5.63;65.25;102295.09;5082092;28;45425;-71
2022/02/25 06:18:17;;;;;;;;;4.00;0.00;;;;;5.63;65.42;102290.72;5081543;27;45442;-71
2022/02/25 06:20:43;;;;;;;;;1.00;0.00;;;;;5.61;64.56;102297.72;5081568;27;45832;-71
2022/02/25 06:23:09;;;;;;;;;8.75;0.00;;;;;5.58;64.98;102305.59;5081464;27;45366;-70
2022/02/25 06:25:36;;;;;;;;;6.25;1.00;;;;;5.57;65.31;102303.88;5081394;27;45478;-71
2022/02/25 06:28:02;;;;;;;;;3.25;1.00;;;;;5.57;64.98;102311.69;5081521;27;45359;-71
2022/02/25 06:30:28;;;;;;;;;2.00;0.50;;;;;5.58;65.98;102316.91;5087320;27;45637;-71
2022/02/25 06:32:53;;;;;;;;;1.75;0.75;;;;;5.56;64.98;102323.91;5086121;27;45423;-70
2022/02/25 06:35:19;;;;;;;;;5.75;0.75;;;;;5.57;64.75;102314.31;5092420;27;45533;-71
2022/02/25 06:37:45;;;;;;;;;2.00;0.25;;;;;5.58;65.24;102321.28;5086062;27;45379;-71
2022/02/25 06:40:11;;;;;;;;;1.00;1.00;;;;;5.56;65.55;102316.06;5084386;27;45651;-70
2022/02/25 06:42:38;;;;;;;;;1.00;1.00;;;;;5.58;65.08;102322.13;5109095;27;45609;-70
2022/02/25 06:45:04;;;;;;;;;2.00;0.00;;;;;5.58;65.57;102327.34;5081318;28;45414;-70
2022/02/25 06:47:29;;;;;;;;;0.00;0.00;;;;;5.57;65.26;102324.78;5103819;27;45566;-71
2022/02/25 06:49:55;;;;;;;;;1.00;1.00;;;;;5.57;65.05;102323.03;5111290;27;46469;-69
2022/02/25 06:52:20;;;;;;;;;4.00;0.50;;;;;5.60;65.67;102332.56;5088936;27;45551;-69
2022/02/25 06:54:46;;;;;;;;;3.00;2.00;;;;;5.62;65.22;102329.94;5081266;28;45343;-70
2022/02/25 06:57:12;;;;;;;;;0.25;0.25;;;;;5.63;65.56;102335.16;5081360;27;45322;-70
2022/02/25 06:59:37;;;;;;;;;2.50;0.00;;;;;5.67;65.99;102339.44;5081223;28;46030;-70
2022/02/25 07:02:04;;;;;;;;;2.00;1.00;;;;;5.70;65.53;102342.03;5083266;27;45375;-70
2022/02/25 07:04:29;;;;;;;;;1.75;0.25;;;;;5.72;66.14;102328.94;5081344;28;45407;-70
2022/02/25 07:06:55;;;;;;;;;1.25;0.25;;;;;5.73;65.56;102346.34;5107431;27;45407;-70
2022/02/25 07:09:21;;;;;;;;;5.75;0.75;;;;;5.74;65.26;102341.09;5081198;28;45434;-70
2022/02/25 07:11:46;;;;;;;;;1.50;0.00;;;;;5.74;65.72;102343.69;5097409;27;45503;-69
2022/02/25 07:14:12;;;;;;;;;1.00;0.00;;;;;5.73;65.03;102354.19;5105925;27;45431;-65
2022/02/25 07:16:37;;;;;;;;;5.25;1.00;;;;;5.77;65.64;102351.53;5089580;27;45707;-66
2022/02/25 07:19:04;;;;;;;;;1.75;1.00;;;;;5.81;65.37;102342.75;5101133;27;46132;-66
2022/02/25 07:21:29;;;;;;;;;2.50;0.25;;;;;5.87;65.18;102347.03;5080464;28;45371;-68
2022/02/25 07:23:55;;;;;;;;;7.00;1.00;;;;;5.89;65.39;102348.72;5081300;27;45371;-65
2022/02/25 07:26:21;;;;;;;;;0.50;0.00;;;;;5.92;64.84;102349.59;5079277;28;45770;-68
2022/02/25 07:28:47;;;;;;;;;2.00;0.00;;;;;5.94;65.17;102346.09;5079562;27;45327;-68
2022/02/25 07:31:12;;;;;;;;;2.50;1.00;;;;;6.01;65.54;102342.50;5080820;27;45380;-68
2022/02/25 07:33:38;;;;;;;;;2.50;0.00;;;;;6.02;64.77;102349.47;5085359;27;45234;-70
2022/02/25 07:36:04;;;;;;;;;2.00;0.50;;;;;6.05;65.23;102344.16;5085109;27;45169;-69
2022/02/25 07:38:29;;;;;;;;;2.00;0.00;;;;;6.09;64.64;102337.16;5080891;28;46269;-68
2022/02/25 07:40:55;;;;;;;;;1.00;0.00;;;;;6.15;64.42;102345.75;5089087;27;45398;-69
2022/02/25 07:43:20;;;;;;;;;2.75;0.75;;;;;6.18;65.25;102352.72;5091636;27;45881;-69
2022/02/25 07:45:51;;;;;;;;;1.25;1.00;;;;;6.22;64.26;102361.38;5079615;28;45338;-69
2022/02/25 07:48:17;;;;;;;;;4.00;1.00;;;;;6.25;65.03;102367.44;5079469;28;45762;-69
2022/02/25 07:50:44;;;;;;;;;1.00;1.00;;;;;6.30;64.27;102372.59;5082971;28;45444;-69
2022/02/25 07:53:10;;;;;;;;;2.25;1.25;;;;;6.37;65.03;102366.38;5083338;28;45430;-69
2022/02/25 07:55:35;;;;;;;;;2.00;1.00;;;;;6.47;64.72;102385.41;5083624;27;45414;-69
2022/02/25 07:58:01;;;;;;;;;3.00;1.00;;;;;6.52;64.45;102378.34;5083992;28;46328;-69
2022/02/25 08:00:27;;;;;;;;;1.00;1.00;;;;;6.56;64.03;102377.44;5084248;27;45331;-69
2022/02/25 08:02:54;;;;;;;;;0.00;0.00;;;;;6.58;63.46;102378.25;5084520;28;45348;-69
2022/02/25 08:05:19;;;;;;;;;0.00;0.00;;;;;6.59;63.90;102390.47;5084502;27;45615;-69
2022/02/25 08:07:45;;;;;;;;;1.00;1.00;;;;;6.69;64.50;102390.28;5084138;28;45463;-68
2022/02/25 08:10:10;;;;;;;;;5.50;1.75;;;;;6.79;64.08;102382.25;5083921;27;45272;-68
2022/02/25 08:12:36;;;;;;;;;2.75;2.00;;;;;6.82;63.97;102397.94;5084608;28;45263;-68
2022/02/25 08:15:01;;;;;;;;;1.25;0.25;;;;;6.82;63.31;102395.31;5084272;27;45236;-69
2022/02/25 08:17:27;;;;;;;;;2.00;1.00;;;;;6.89;63.33;102408.28;5083860;28;46350;-69
2022/02/25 08:19:52;;;;;;;;;1.00;1.00;;;;;6.95;63.46;102402.94;5083797;28;45351;-68
2022/02/25 08:22:20;;;;;;;;;6.00;0.00;;;;;7.05;63.33;102398.41;5084403;27;45154;-68
2022/02/25 08:24:46;;;;;;;;;6.00;1.00;;;;;7.18;63.41;102409.50;5084000;27;45232;-68
2022/02/25 08:27:12;;;;;;;;;3.50;0.75;;;;;7.26;62.55;102397.97;5083979;27;45714;-68
2022/02/25 08:29:38;;;;;;;;;4.75;1.00;;;;;7.31;62.72;102407.53;5083804;27;45457;-68
2022/02/25 08:32:03;;;;;;;;;1.00;1.00;;;;;7.30;62.77;102418.91;5083841;27;45342;-69
2022/02/25 08:34:29;;;;;;;;;1.50;0.75;;;;;7.26;62.45;102420.72;5093472;27;45464;-68
2022/02/25 08:36:55;;;;;;;;;0.75;0.50;;;;;7.20;62.45;102424.31;5083945;28;45362;-68
2022/02/25 08:39:22;;;;;;;;;2.00;0.00;;;;;7.22;62.45;102422.53;5087758;27;45436;-68
2022/02/25 08:41:48;;;;;;;;;2.25;0.00;;;;;7.25;62.30;102413.75;5097118;27;45453;-68
2022/02/25 08:44:13;;;;;;;;;3.00;1.00;;;;;7.33;62.31;102421.47;5087567;27;45157;-68
2022/02/25 08:46:39;;;;;;;;;0.75;0.50;;;;;7.37;62.41;102424.00;5083443;28;45300;-68
2022/02/25 08:49:05;;;;;;;;;3.00;2.00;;;;;7.40;62.16;102423.94;5083259;27;45257;-68
2022/02/25 08:51:31;;;;;;;;;4.00;2.00;;;;;7.49;61.94;102436.00;5083900;28;45287;-69
2022/02/25 08:53:57;;;;;;;;;2.25;1.00;;;;;7.57;62.29;102434.09;5083684;27;45368;-68
2022/02/25 08:56:24;;;;;;;;;3.00;1.00;;;;;7.63;61.98;102441.00;5083390;27;45408;-68
2022/02/25 08:58:51;;;;;;;;;2.00;2.00;;;;;7.68;62.21;102440.00;5083617;27;45379;-68
2022/02/25 09:01:17;;;;;;;;;8.75;1.00;;;;;7.76;61.92;102438.09;5083228;27;45231;-68
2022/02/25 09:03:43;;;;;;;;;3.00;1.00;;;;;7.80;61.60;102444.13;5083537;27;45564;-67
2022/02/25 09:06:08;;;;;;;;;4.50;1.00;;;;;7.80;61.59;102452.00;5083202;28;45327;-68
2022/02/25 09:08:34;;;;;;;;;5.00;2.00;;;;;7.82;61.63;102443.22;5083254;27;45347;-68
2022/02/25 09:11:00;;;;;;;;;2.00;1.00;;;;;7.87;61.43;102458.00;5083322;28;45419;-68
2022/02/25 09:13:26;;;;;;;;;1.00;1.00;;;;;7.86;61.39;102454.50;5083489;27;45244;-68
2022/02/25 09:15:51;;;;;;;;;2.75;1.00;;;;;7.89;61.51;102453.56;5083155;28;45465;-67
2022/02/25 09:18:17;;;;;;;;;1.00;1.00;;;;;7.87;61.70;102458.84;5083101;27;45304;-67
2022/02/25 09:20:43;;;;;;;;;2.00;0.50;;;;;7.89;61.88;102466.69;5083353;27;45311;-67
2022/02/25 09:23:09;;;;;;;;;2.25;1.00;;;;;7.94;61.57;102467.47;5083308;27;45343;-67
2022/02/25 09:25:34;;;;;;;;;5.50;1.00;;;;;7.98;61.39;102471.75;5083021;28;45638;-68
2022/02/25 09:28:01;;;;;;;;;3.00;1.00;;;;;8.04;61.24;102472.50;5082911;27;45310;-68
2022/02/25 09:30:27;;;;;;;;;3.00;1.75;;;;;8.10;61.52;102476.75;5083342;28;45326;-67
2022/02/25 09:32:53;;;;;;;;;5.00;2.00;;;;;8.16;61.21;102479.25;5082838;27;45268;-67
2022/02/25 09:35:18;;;;;;;;;5.50;1.00;;;;;8.20;61.38;102486.16;5092090;27;46035;-68
2022/02/25 09:37:44;;;;;;;;;4.25;1.00;;;;;8.25;61.00;102478.19;5082862;28;45288;-67
2022/02/25 09:40:18;;;;;;;;;1.75;1.00;;;;;8.27;61.16;102479.88;5086298;27;45272;-68
2022/02/25 09:42:45;;;;;;;;;5.50;1.50;;;;;8.35;61.18;102495.50;5096389;27;45237;-67
2022/02/25 09:45:13;;;;;;;;;6.25;2.50;;;;;8.42;61.22;102494.47;5082530;28;45291;-67
2022/02/25 09:47:39;;;;;;;;;3.00;1.00;;;;;8.51;61.67;102507.38;5082017;28;45385;-67
2022/02/25 09:50:08;;;;;;;;;3.00;0.75;;;;;8.55;60.45;102498.56;5082598;27;45328;-67
2022/02/25 09:52:36;;;;;;;;;1.00;1.00;;;;;8.61;60.87;102513.28;5082591;28;45358;-67
2022/02/25 09:55:06;;;;;;;;;6.00;2.50;;;;;8.65;60.77;102507.94;5082138;28;45437;-67
2022/02/25 09:57:32;;;;;;;;;2.75;1.25;;;;;8.73;60.33;102512.16;5082426;27;45192;-67
2022/02/25 09:59:57;;;;;;;;;6.25;0.00;;;;;8.74;60.54;102511.25;5082431;28;45312;-67
2022/02/25 10:02:38;;;;;;;;;7.50;4.25;;;;;8.82;60.66;102523.31;5082310;28;45220;-68
2022/02/25 10:05:12;;;;;;;;;9.50;6.00;;;;;8.90;60.24;102518.75;5080866;27;45644;-68
2022/02/25 10:07:38;;;;;;;;;7.25;3.50;;;;;8.95;59.97;102526.53;5060308;28;45366;-67
2022/02/25 10:10:05;;;;;;;;;2.75;0.75;;;;;8.95;60.00;102529.16;5082197;27;45429;-67
2022/02/25 10:12:31;;;;;;;;;11.25;3.00;;;;;8.98;59.73;102539.59;5072634;27;45327;-67
2022/02/25 10:14:56;;;;;;;;;2.00;2.00;;;;;9.04;59.64;102534.19;5086487;27;45439;-66
2022/02/25 10:17:24;;;;;;;;;4.75;1.75;;;;;9.06;59.25;102534.16;5082108;28;45191;-67
2022/02/25 10:19:58;;;;;;;;;6.25;1.00;;;;;9.14;59.28;102535.69;5082045;28;45200;-66
2022/02/25 10:22:30;;;;;;;;;2.00;1.00;;;;;9.18;59.40;102531.22;5082390;28;45170;-67
2022/02/25 10:24:57;;;;;;;;;4.75;4.00;;;;;9.20;59.38;102539.94;5081807;27;46201;-67
2022/02/25 10:27:35;;;;;;;;;10.75;3.25;;;;;9.18;59.28;102542.63;5081710;28;45262;-67
2022/02/25 10:30:09;;;;;;;;;3.75;2.50;;;;;9.15;58.98;102547.06;5081897;27;45240;-66
2022/02/25 10:32:42;;;;;;;;;7.50;6.00;;;;;9.14;58.86;102534.81;5081884;28;45352;-66
2022/02/25 10:35:32;;;;;;;;;6.00;2.00;;;;;9.30;58.98;102545.81;5090849;27;45260;-67
2022/02/25 10:38:14;;;;;;;;;3.25;2.75;;;;;9.40;58.83;102540.31;5081802;28;45331;-66
2022/02/25 10:40:43;;;;;;;;;2.00;2.00;;;;;9.43;58.22;102537.59;5088459;27;45302;-67
2022/02/25 10:43:17;;;;;;;;;7.00;2.50;;;;;9.56;58.38;102542.53;5094611;27;45322;-67
2022/02/25 10:45:45;;;;;;;;;3.50;1.75;;;;;9.75;58.13;102538.53;5081321;28;45320;-66
2022/02/25 10:48:17;;;;;;;;;1.25;1.25;;;;;9.93;57.96;102537.16;5081472;27;45351;-67
2022/02/25 10:50:56;;;;;;;;;7.25;5.00;;;;;10.06;57.61;102528.00;5081777;27;45249;-67
2022/02/25 10:53:49;;;;;;;;;4.50;2.00;;;;;10.21;57.42;102540.72;5082143;28;45280;-66
2022/02/25 10:56:17;;;;;;;;;10.00;7.00;;;;;10.25;57.03;102525.72;5074761;27;45289;-67
2022/02/25 10:58:51;;;;;;;;;7.50;4.25;;;;;10.30;56.95;102527.31;5081611;27;45542;-66
2022/02/25 11:01:21;;;;;;;;;1.25;0.50;;;;;10.39;56.89;102530.59;5081856;28;45253;-65
2022/02/25 11:04:07;;;;;;;;;4.00;3.00;;;;;10.53;56.87;102547.72;5081835;28;45332;-66
2022/02/25 11:06:33;;;;;;;;;8.50;4.00;;;;;10.67;57.08;102552.56;5081260;28;45334;-66
2022/02/25 11:08:59;;;;;;;;;8.50;4.00;;;;;10.75;56.85;102553.19;5081682;28;45492;-67
2022/02/25 11:11:26;;;;;;;;;8.50;6.25;;;;;10.77;56.85;102550.50;5081494;27;45314;-67
2022/02/25 11:13:52;;;;;;;;;5.75;3.00;;;;;10.67;56.80;102549.09;5081574;28;45151;-67
2022/02/25 11:16:19;;;;;;;;;4.00;2.50;;;;;10.55;56.77;102545.03;5081216;28;46358;-67
2022/02/25 11:18:49;;;;;;;;;11.00;7.25;;;;;10.52;56.86;102550.41;5081552;28;45279;-67
2022/02/25 11:21:18;;;;;;;;;3.00;2.25;;;;;10.52;56.66;102551.25;5081470;28;45313;-67
2022/02/25 11:23:46;;;;;;;;;6.25;2.00;;;;;10.54;56.90;102551.22;5081601;27;45309;-67
2022/02/25 11:26:12;;;;;;;;;7.25;5.50;;;;;10.67;56.78;102554.34;5080884;28;46142;-68
2022/02/25 11:28:40;;;;;;;;;14.25;7.00;;;;;10.70;56.71;102546.34;5081480;28;45338;-67
2022/02/25 11:31:21;;;;;;;;;8.25;6.25;;;;;10.74;56.32;102553.22;5081362;27;45376;-67
2022/02/25 11:33:54;;;;;;;;;7.25;2.25;;;;;10.80;55.53;102558.31;5087055;27;46237;-67
2022/02/25 11:36:39;;;;;;;;;6.25;5.50;;;;;10.91;55.87;102548.31;5083028;27;45284;-67
2022/02/25 11:39:24;;;;;;;;;12.25;12.00;;;;;11.11;55.56;102558.22;5083912;27;45240;-66